• Join FlightAware (Why Join?)
  • Login
  • US Flag 
06:19AM EDT


 

Airport Tracker/Info


-or-


 

Live Flight TrackerFlight Track Log ✈ SWA1254 ✈ 17-Nov-2013 ✈ KBUF - KFLL

Flight Track Log - Related Links

Times and Time Zones

All times are in EST time to prevent confusion due to time zone crossing. See the SWA1254 flight status page for this flight to view local times or setup timezone preferences in your user account.

Time Position Orientation Groundspeed Altitude Reporting Facility
EST Latitude Longitude Course Direction KTS MPH feet Rate Location/Type
07:49AM 42.9333 -78.7500 180° South 168 193 1,900  Level Buffalo TRACON
07:49AM 42.9167 -78.7500 180° South 165 190 2,600 2,160 Climbing Buffalo TRACON
07:50AM 42.8572 -78.8022 213° Southwest 209 241 5,100 2,400 Climbing Cleveland Center
07:51AM 42.7889 -78.8353 200° South 245 282 8,300 2,700 Climbing Cleveland Center
07:52AM 42.7292 -78.8631 199° South 256 295 10,600 1,560 Climbing Cleveland Center
07:53AM 42.6456 -78.9050 200° South 339 390 11,500 1,560 Climbing Cleveland Center
07:55AM 42.5542 -78.9467 199° South 349 402 13,800 2,340 Climbing Cleveland Center
07:56AM 42.4456 -78.9992 200° South 366 421 16,300 2,400 Climbing Cleveland Center
07:57AM 42.3472 -79.0467 200° South 375 432 18,700 1,920 Climbing Cleveland Center
07:58AM 42.2467 -79.0928 199° South 383 441 20,300 1,620 Climbing Cleveland Center
07:59AM 42.1481 -79.1525 204° Southwest 391 450 22,100 1,560 Climbing Cleveland Center
08:00AM 42.0567 -79.2281 212° Southwest 390 449 23,500 1,320 Climbing Cleveland Center
08:01AM 41.9611 -79.3050 211° Southwest 400 460 24,800 1,620 Climbing Cleveland Center
08:02AM 41.8667 -79.3831 212° Southwest 403 464 26,800 1,320 Climbing Cleveland Center
08:03AM 41.7550 -79.4731 211° Southwest 396 456 27,600 900 Climbing Cleveland Center
08:04AM 41.6611 -79.5494 211° Southwest 399 459 28,700 1,500 Climbing Cleveland Center
08:05AM 41.5669 -79.6256 211° Southwest 400 460 30,700 1,800 Climbing Cleveland Center
08:06AM 41.4792 -79.6939 210° Southwest 374 430 32,400 1,500 Climbing Cleveland Center
08:07AM 41.3864 -79.7461 203° Southwest 377 434 33,800 780 Climbing Cleveland Center
08:08AM 41.2797 -79.7617 186° South 387 445 34,000 60 Climbing Cleveland Center
08:09AM 41.1728 -79.7761 186° South 390 449 34,000  Level Cleveland Center
08:10AM 41.0578 -79.7925 186° South 404 465 34,000  Level Cleveland Center
08:11AM 40.9453 -79.8078 186° South 406 467 34,000  Level Cleveland Center
08:12AM 40.8319 -79.8225 186° South 407 468 34,000  Level Cleveland Center
08:13AM 40.7175 -79.8392 186° South 411 473 34,000  Level Cleveland Center
08:14AM 40.6033 -79.8547 186° South 411 473 34,000  Level Cleveland Center
08:15AM 40.4878 -79.8708 186° South 412 474 34,000  Level Cleveland Center
08:16AM 40.3708 -79.8881 186° South 416 479 34,000  Level Cleveland Center
08:17AM 40.2544 -79.9036 186° South 415 478 34,000  Level Cleveland Center
08:18AM 40.1158 -79.9233 186° South 415 478 34,000  Level Cleveland Center
08:19AM 39.9997 -79.9381 186° South 418 481 34,000  Level Cleveland Center
08:20AM 39.8844 -79.9547 186° South 417 480 34,000  Level Cleveland Center
08:21AM 39.7689 -79.9692 185° South 417 480 34,000  Level Cleveland Center
08:22AM 39.6550 -79.9847 186° South 414 476 34,000  Level Cleveland Center
08:23AM 39.5403 -79.9994 186° South 414 476 34,000  Level Cleveland Center
08:24AM 39.4514 -80.0131 187° South 410 472 34,000  Level Washington Center
08:25AM 39.3381 -80.0303 187° South 410 472 34,000  Level Washington Center
08:26AM 39.2231 -80.0419 184° South 410 472 34,000  Level Washington Center
08:27AM 39.1097 -80.0592 187° South 410 472 34,000  Level Washington Center
08:28AM 39.0069 -80.0794 189° South 410 472 34,000  Level Washington Center
08:29AM 38.8933 -80.1019 189° South 410 472 34,000  Level Washington Center
08:30AM 38.7772 -80.1453 196° South 405 466 34,000  Level Washington Center
08:31AM 38.6675 -80.1786 193° South 405 466 34,000  Level Washington Center
08:32AM 38.5617 -80.2169 196° South 405 466 34,000  Level Washington Center
08:33AM 38.4581 -80.2531 195° South 400 460 34,000  Level Washington Center
08:34AM 38.3589 -80.2867 195° South 400 460 34,000  Level Washington Center
08:35AM 38.2531 -80.3247 196° South 400 460 34,000  Level Washington Center
08:36AM 38.1472 -80.3603 195° South 400 460 34,000  Level Washington Center
08:37AM 38.0311 -80.3978 194° South 400 460 34,000  Level Washington Center
08:38AM 37.9275 -80.4333 195° South 400 460 34,000  Level Washington Center
08:39AM 37.8217 -80.4711 196° South 400 460 34,000  Level Washington Center
08:40AM 37.7181 -80.5064 195° South 400 460 34,000 600 Level Washington Center
08:42AM 37.5189 -80.5697 194° South 401 461 35,800 660 Climbing Atlanta Center
08:43AM 37.4219 -80.6053 196° South 385 443 36,000 60 Climbing Atlanta Center
08:44AM 37.3125 -80.6417 195° South 375 432 36,000  Level Atlanta Center
08:45AM 37.2111 -80.6744 194° South 375 432 36,000  Level Atlanta Center
08:46AM 37.1100 -80.7075 195° South 375 432 36,000  Level Atlanta Center
08:47AM 37.0042 -80.7250 188° South 380 437 36,000  Level Atlanta Center
08:48AM 36.9042 -80.7344 184° South 392 451 36,000  Level Atlanta Center
08:49AM 36.7961 -80.7467 185° South 397 457 36,000  Level Atlanta Center
08:50AM 36.6839 -80.7564 184° South 403 464 36,000  Level Atlanta Center
08:51AM 36.5633 -80.7717 186° South 403 464 36,000  Level Atlanta Center
08:52AM 36.4531 -80.7789 183° South 403 464 36,000  Level Atlanta Center
08:53AM 36.3408 -80.7936 186° South 403 464 36,000  Level Atlanta Center
08:54AM 36.2306 -80.8058 185° South 403 464 36,000  Level Atlanta Center
08:55AM 36.1306 -80.8150 184° South 403 464 36,000  Level Atlanta Center
08:56AM 36.0206 -80.8269 185° South 403 464 36,000  Level Atlanta Center
08:57AM 35.9103 -80.8442 187° South 403 464 36,000  Level Atlanta Center
08:58AM 35.7981 -80.8539 184° South 409 471 36,000  Level Atlanta Center
08:59AM 35.6731 -80.8611 183° South 404 465 36,000  Level Atlanta Center
09:00AM 35.5606 -80.8758 186° South 404 465 36,000  Level Atlanta Center
09:01AM 35.4461 -80.8878 185° South 409 471 36,000  Level Atlanta Center
09:02AM 35.3317 -80.8972 184° South 409 471 36,000  Level Atlanta Center
09:04AM 35.1206 -80.9258 186° South 406 467 36,000  Level Jacksonville Center
09:05AM 35.0083 -80.9361 184° South 406 467 36,000  Level Jacksonville Center
09:06AM 34.8894 -80.9464 184° South 411 473 36,000  Level Jacksonville Center
09:07AM 34.7772 -80.9617 186° South 411 473 36,000  Level Jacksonville Center
09:08AM 34.6647 -80.9742 185° South 416 479 36,000  Level Jacksonville Center
09:09AM 34.5689 -80.9814 184° South 422 486 36,000  Level Jacksonville Center
09:10AM 34.4397 -80.9967 186° South 422 486 36,000  Level Jacksonville Center
09:11AM 34.3253 -81.0069 184° South 422 486 36,000  Level Jacksonville Center
09:12AM 34.2061 -81.0069 180° South 422 486 36,000  Level Jacksonville Center
09:13AM 34.0875 -81.0119 182° South 422 486 36,000  Level Jacksonville Center
09:14AM 33.9686 -81.0144 181° South 422 486 36,000  Level Jacksonville Center
09:15AM 33.8517 -81.0169 181° South 422 486 36,000  Level Jacksonville Center
09:16AM 33.7306 -81.0197 181° South 422 486 36,000  Level Jacksonville Center
09:17AM 33.6139 -81.0219 181° South 422 486 36,000  Level Jacksonville Center
09:18AM 33.4950 -81.0244 181° South 422 486 36,000  Level Jacksonville Center
09:19AM 33.3739 -81.0272 181° South 422 486 36,000  Level Jacksonville Center
09:20AM 33.2550 -81.0322 182° South 422 486 36,000  Level Jacksonville Center
09:21AM 33.1361 -81.0322 180° South 422 486 36,000  Level Jacksonville Center
09:22AM 33.0025 -81.0372 182° South 422 486 36,000  Level Jacksonville Center
09:23AM 32.8836 -81.0397 181° South 427 491 36,000  Level Jacksonville Center
09:24AM 32.7647 -81.0397 180° South 427 491 36,000  Level Jacksonville Center
09:25AM 32.6478 -81.0422 181° South 421 484 36,000  Level Jacksonville Center
09:26AM 32.5289 -81.0444 181° South 424 488 36,000  Level Jacksonville Center
09:27AM 32.4142 -81.0469 181° South 418 481 36,000  Level Jacksonville Center
09:28AM 32.2992 -81.0492 181° South 418 481 36,000  Level Jacksonville Center
09:29AM 32.1822 -81.0467 179° South 418 481 36,000  Level Jacksonville Center
09:30AM 32.0697 -81.0514 182° South 439 505 36,000  Level Jacksonville Center
09:31AM 31.9403 -81.0564 182° South 439 505 36,000  Level Jacksonville Center
09:32AM 31.8233 -81.0611 182° South 433 498 36,000  Level Jacksonville Center
09:33AM 31.7169 -81.0633 181° South 423 487 36,000  Level Jacksonville Center
09:34AM 31.5856 -81.0658 181° South 423 487 36,000  Level Jacksonville Center
09:35AM 31.4686 -81.0681 181° South 423 487 36,000  Level Jacksonville Center
09:36AM 31.3600 -81.0703 181° South 423 487 36,000  Level Jacksonville Center
09:37AM 31.2286 -81.0753 182° South 423 487 36,000  Level Jacksonville Center
09:38AM 31.1097 -81.0775 181° South 428 493 36,000  Level Jacksonville Center
09:39AM 30.9906 -81.0822 182° South 428 493 36,000  Level Jacksonville Center
09:40AM 30.8694 -81.0700 175° South 428 493 36,000  Level Jacksonville Center
09:41AM 30.7500 -81.0336 165° South 433 498 36,000  Level Jacksonville Center
09:42AM 30.6283 -81.0000 167° South 444 511 36,000  Level Jacksonville Center
09:43AM 30.5067 -80.9636 166° South 449 517 36,000  Level Jacksonville Center
09:44AM 30.3850 -80.9275 166° South 454 522 36,000  Level Jacksonville Center
09:45AM 30.2633 -80.8892 165° South 454 522 36,000  Level Jacksonville Center
09:46AM 30.1397 -80.8558 167° South 454 522 36,000  Level Jacksonville Center
09:47AM 29.9342 -80.7911 165° South 475 547 36,000  Level Miami Center
09:48AM 29.8119 -80.7578 167° South 469 540 36,000  Level Miami Center
09:49AM 29.6858 -80.7222 166° South 469 540 36,000  Level Miami Center
09:50AM 29.5639 -80.6844 165° South 469 540 36,000  Level Miami Center
09:51AM 29.4436 -80.6542 168° South 469 540 36,000  Level Miami Center
09:52AM 29.3194 -80.6189 166° South 462 532 36,000  Level Miami Center
09:53AM 29.1956 -80.5789 164° South 462 532 36,000  Level Miami Center
09:54AM 29.0758 -80.5250 159° South 462 532 36,000  Level Miami Center
09:55AM 28.9542 -80.4736 160° South 462 532 36,000  Level Miami Center
09:56AM 28.8261 -80.4172 159° South 456 525 36,000  Level Miami Center
09:57AM 28.7169 -80.3689 159° South 461 531 36,000  Level Miami Center
09:58AM 28.5992 -80.3203 160° South 456 525 36,000  Level Miami Center
09:59AM 28.4689 -80.2642 159° South 456 525 36,000  Level Miami Center
10:00AM 28.3511 -80.2136 159° South 456 525 36,000  Level Miami Center
10:01AM 28.2356 -80.1653 160° South 450 518 36,000  Level Miami Center
10:02AM 28.1319 -80.1222 160° South 445 512 36,000  Level Miami Center
10:03AM 28.0039 -80.0669 159° South 445 512 36,000  Level Miami Center
10:04AM 27.8881 -80.0167 159° South 445 512 36,000 -1,200 Level Miami Center
10:05AM 27.7639 -79.9661 160° South 463 533 33,600 -2,640 Descending Miami Center
10:06AM 27.6439 -79.9161 160° South 463 533 30,800 -2,100 Descending Miami Center
10:07AM 27.5406 -79.8711 159° South 458 527 29,400 -1,500 Descending Miami Center
10:08AM 27.4181 -79.8375 166° South 453 521 27,800 -1,740 Descending Miami Center
10:09AM 27.2808 -79.8083 169° South 453 521 26,000 -2,160 Descending Miami Center
10:10AM 27.1561 -79.7772 167° South 453 521 23,500 -2,460 Descending Miami Center
10:11AM 27.0500 -79.7533 169° South 448 516 21,100 -2,400 Descending Miami Center
10:12AM 26.9336 -79.7272 169° South 436 502 18,800 -2,460 Descending Miami Center
10:13AM 26.8111 -79.6986 168° South 422 486 16,200 -2,460 Descending Miami Center
10:14AM 26.7169 -79.7033 183° South 361 415 13,900 -2,760 Descending Miami Center
10:15AM 26.6431 -79.7364 202° Southwest 369 425 11,700 -3,240 Descending Miami Center
10:15AM 26.6094 -79.7519 202° Southwest 372 428 10,700 -2,460 Descending Miami Center
10:16AM 26.5336 -79.7894 204° Southwest 342 394 8,700 -2,220 Descending Miami Center
10:16AM 26.5314 -79.7894 180° South 360 414 8,500 -600 Descending Miami Center
10:17AM 26.4469 -79.8292 203° Southwest 294 338 8,100 -540 Descending Miami Center
10:17AM 26.4428 -79.8314 206° Southwest 328 377 8,000  Descending Miami Center
10:18AM 26.3753 -79.8644 204° Southwest 285 328 8,100  Climbing Miami Center
10:18AM 26.3775 -79.8644 360° North 295 339 8,000 -600 Descending Miami Center
10:19AM 26.3136 -79.9231 219° Southwest 277 319 7,500 -720 Descending Miami Center
10:19AM 26.3133 -79.9253 262° West 288 331 7,300 -960 Descending Miami Center
10:20AM 26.2578 -79.9842 224° Southwest 283 326 6,500 -660 Descending Miami Center
10:21AM 26.2025 -80.0336 219° Southwest 288 331 6,100 -540 Descending Miami Center
10:21AM 26.1961 -80.0406 224° Southwest 283 326 6,000 -120 Descending Miami Center
10:22AM 26.1633 -80.1114 243° Southwest 247 284 6,000  Level Miami Center
10:22AM 26.1592 -80.1111 177° South 283 326 6,000 -240 Level Miami Center
10:23AM 26.1450 -80.1756 256° West 244 281 5,800 -300 Descending Miami Center
10:23AM 26.1489 -80.1872 290° West 261 300 5,700 -1,080 Descending Miami Center
10:24AM 26.1475 -80.2567 269° West 239 275 4,600 -1,200 Descending Miami Center
10:24AM 26.1494 -80.2592 311° West 239 275 4,500 -540 Descending Miami Center
10:25AM 26.1478 -80.3308 269° West 226 260 4,100 -540 Descending Miami Center
10:26AM 26.1378 -80.3975 261° West 217 250 3,500 -600 Descending Miami Center
10:27AM 26.0919 -80.3917 173° South 177 204 3,000 -720 Descending Miami Center
10:28AM 26.0767 -80.3381 108° East 183 211 2,100 -540 Descending Miami Center
10:29AM 26.0736 -80.2847 94° East 181 208 1,900 -600 Descending Miami Center
10:30AM 26.0750 -80.2292 88° East 168 193 1,000 -840 Descending Miami Center
10:31AM 26.0739 -80.1875 92° East 133 153 300 -720 Descending Miami Center
10:33AM 26.0667 -80.1500 103° East  Level FlightAware Approximate
10:40AM 26.0726 -80.1527 103° East  Level Estimated